createdAt,value
2023-05-21T00:00:14.428Z,20.22
2023-05-21T00:01:14.490Z,20.19
2023-05-21T00:02:14.405Z,20.13
2023-05-21T00:03:14.500Z,20.08
2023-05-21T00:04:14.414Z,20.15
2023-05-21T00:05:14.923Z,20.15
2023-05-21T00:06:14.488Z,20.16
2023-05-21T00:07:14.365Z,20.15
2023-05-21T00:08:14.379Z,20.05
2023-05-21T00:09:14.364Z,20.11
2023-05-21T00:10:14.363Z,20.16
2023-05-21T00:11:14.343Z,20.15
2023-05-21T00:12:14.349Z,20.12
2023-05-21T00:13:14.359Z,20.12
2023-05-21T00:14:14.329Z,20.15
2023-05-21T00:15:14.309Z,20.12
2023-05-21T00:16:14.312Z,20.11
2023-05-21T00:17:14.291Z,20.09
2023-05-21T00:18:14.357Z,20.05
2023-05-21T00:19:14.487Z,20.05
2023-05-21T00:20:14.505Z,20.03
2023-05-21T00:21:14.547Z,19.99
2023-05-21T00:22:14.616Z,19.97
2023-05-21T00:23:14.629Z,19.96
2023-05-21T00:24:14.672Z,19.95
2023-05-21T00:25:14.717Z,19.93
2023-05-21T00:26:14.718Z,19.91
2023-05-21T00:27:14.755Z,19.92
2023-05-21T00:28:14.805Z,19.93
2023-05-21T00:29:14.853Z,19.91
2023-05-21T00:30:14.935Z,19.91
2023-05-21T00:31:15.018Z,19.91
2023-05-21T00:32:15.044Z,19.91
2023-05-21T00:33:15.063Z,19.91
2023-05-21T00:34:15.082Z,19.86
2023-05-21T00:35:15.109Z,19.85
2023-05-21T00:36:15.099Z,19.82
2023-05-21T00:37:15.072Z,19.84
2023-05-21T00:38:15.079Z,19.82
2023-05-21T00:39:15.093Z,19.81
2023-05-21T00:40:15.098Z,19.79
2023-05-21T00:41:15.103Z,19.79
2023-05-21T00:42:15.104Z,19.76
2023-05-21T00:43:15.107Z,19.74
2023-05-21T00:44:15.118Z,19.74
2023-05-21T00:45:15.124Z,19.71
2023-05-21T00:46:15.174Z,19.71
2023-05-21T00:47:15.158Z,19.68
2023-05-21T00:48:15.177Z,19.62
2023-05-21T00:49:15.185Z,19.65
2023-05-21T00:50:15.287Z,19.65
2023-05-21T00:51:15.206Z,19.65
2023-05-21T00:52:15.226Z,19.64
2023-05-21T00:53:15.231Z,19.66
2023-05-21T00:54:15.230Z,19.66
2023-05-21T00:55:15.243Z,19.64
2023-05-21T00:56:15.252Z,19.62
2023-05-21T00:57:15.256Z,19.64
2023-05-21T00:58:15.246Z,19.64
2023-05-21T00:59:15.254Z,19.62
2023-05-21T01:00:15.283Z,19.65
2023-05-21T01:01:15.316Z,19.61
2023-05-21T01:02:15.455Z,19.61
2023-05-21T01:03:15.597Z,19.58
2023-05-21T01:04:15.397Z,19.55
2023-05-21T01:05:15.474Z,19.57
2023-05-21T01:06:15.451Z,19.53
2023-05-21T01:07:15.441Z,19.53
2023-05-21T01:08:15.455Z,19.51
2023-05-21T01:09:15.496Z,19.48
2023-05-21T01:10:15.531Z,19.47
2023-05-21T01:11:15.551Z,19.50
2023-05-21T01:12:15.600Z,19.47
2023-05-21T01:13:15.621Z,19.45
2023-05-21T01:14:15.651Z,19.45
2023-05-21T01:15:15.647Z,19.47
2023-05-21T01:16:15.695Z,19.44
2023-05-21T01:17:15.798Z,19.42
2023-05-21T01:18:15.830Z,19.41
2023-05-21T01:19:15.866Z,19.30
2023-05-21T01:20:15.870Z,19.35
2023-05-21T01:21:15.891Z,19.34
2023-05-21T01:22:15.900Z,19.35
2023-05-21T01:23:15.918Z,19.34
2023-05-21T01:24:15.955Z,19.35
2023-05-21T01:25:15.999Z,19.33
2023-05-21T01:26:16.163Z,19.34
2023-05-21T01:27:16.072Z,19.31
2023-05-21T01:28:16.102Z,19.33
2023-05-21T01:29:16.135Z,19.31
2023-05-21T01:30:16.153Z,19.27
2023-05-21T01:31:16.184Z,19.27
2023-05-21T01:32:16.235Z,19.28
2023-05-21T01:33:16.392Z,19.24
2023-05-21T01:34:16.342Z,19.21
2023-05-21T01:35:16.397Z,19.20
2023-05-21T01:36:16.485Z,19.16
2023-05-21T01:37:16.522Z,19.13
2023-05-21T01:38:16.558Z,19.10
2023-05-21T01:39:16.611Z,19.03
2023-05-21T01:40:16.690Z,19.02
2023-05-21T01:41:16.722Z,18.99
2023-05-21T01:42:16.757Z,18.99
2023-05-21T01:43:16.821Z,18.97
2023-05-21T01:44:16.912Z,18.99
2023-05-21T01:45:16.954Z,19.02
2023-05-21T01:46:17.051Z,19.00
2023-05-21T01:47:17.067Z,19.02
2023-05-21T01:48:17.084Z,19.00
2023-05-21T01:49:17.112Z,18.97
2023-05-21T01:50:17.165Z,18.99
2023-05-21T01:51:17.169Z,18.99
2023-05-21T01:52:17.208Z,19.03
2023-05-21T01:53:17.281Z,19.00
2023-05-21T01:54:17.293Z,19.00
2023-05-21T01:55:17.347Z,18.96
2023-05-21T01:56:17.394Z,18.82
2023-05-21T01:57:17.474Z,18.85
2023-05-21T01:58:17.532Z,18.93
2023-05-21T01:59:17.556Z,18.86
2023-05-21T02:00:17.616Z,18.95
2023-05-21T02:01:17.687Z,18.93
2023-05-21T02:02:17.776Z,18.95
2023-05-21T02:03:17.840Z,18.95
2023-05-21T02:04:17.846Z,18.92
2023-05-21T02:05:17.844Z,18.92
2023-05-21T02:06:17.954Z,18.87
2023-05-21T02:07:18.017Z,18.87
2023-05-21T02:08:18.014Z,18.86
2023-05-21T02:09:17.996Z,18.85
2023-05-21T02:10:18.004Z,18.83
2023-05-21T02:11:17.991Z,18.82
2023-05-21T02:12:18.011Z,18.86
2023-05-21T02:13:17.996Z,18.83
2023-05-21T02:14:17.997Z,18.79
2023-05-21T02:15:18.214Z,18.79
2023-05-21T02:16:18.042Z,18.80
2023-05-21T02:17:17.982Z,18.79
2023-05-21T02:18:18.078Z,18.79
2023-05-21T02:19:18.080Z,18.77
2023-05-21T02:20:18.065Z,18.76
2023-05-21T02:21:18.094Z,18.79
2023-05-21T02:22:18.112Z,18.76
2023-05-21T02:23:18.098Z,18.75
2023-05-21T02:24:18.228Z,18.72
2023-05-21T02:25:18.315Z,18.73
2023-05-21T02:26:18.408Z,18.72
2023-05-21T02:27:18.420Z,18.72
2023-05-21T02:28:18.437Z,18.70
2023-05-21T02:29:18.422Z,18.62
2023-05-21T02:30:18.442Z,18.66
2023-05-21T02:31:18.439Z,18.63
2023-05-21T02:32:18.459Z,18.65
2023-05-21T02:33:18.445Z,18.63
2023-05-21T02:34:18.465Z,18.62
2023-05-21T02:35:18.463Z,18.62
2023-05-21T02:36:18.542Z,18.62
2023-05-21T02:37:18.491Z,18.60
2023-05-21T02:38:18.519Z,18.60
2023-05-21T02:39:18.518Z,18.56
2023-05-21T02:40:18.533Z,18.56
2023-05-21T02:41:18.535Z,18.52
2023-05-21T02:42:18.556Z,18.55
2023-05-21T02:43:18.589Z,18.54
2023-05-21T02:44:18.588Z,18.52
2023-05-21T02:45:18.622Z,18.51
2023-05-21T02:46:18.649Z,18.51
2023-05-21T02:47:18.652Z,18.49
2023-05-21T02:48:18.660Z,18.48
2023-05-21T02:49:18.712Z,18.49
2023-05-21T02:50:18.716Z,18.49
2023-05-21T02:51:18.725Z,18.48
2023-05-21T02:52:18.773Z,18.47
2023-05-21T02:53:18.782Z,18.44
2023-05-21T02:54:18.800Z,18.42
2023-05-21T02:55:18.834Z,18.41
2023-05-21T02:56:18.845Z,18.37
2023-05-21T02:57:18.821Z,18.35
2023-05-21T02:58:18.850Z,18.35
2023-05-21T02:59:18.864Z,18.35
2023-05-21T03:00:18.925Z,18.37
2023-05-21T03:01:18.977Z,18.38
2023-05-21T03:02:19.015Z,18.38
2023-05-21T03:03:19.047Z,18.39
2023-05-21T03:04:18.950Z,18.42
2023-05-21T03:05:18.998Z,18.39
2023-05-21T03:06:18.995Z,18.38
2023-05-21T03:07:19.164Z,18.41
2023-05-21T03:08:19.027Z,18.39
2023-05-21T03:09:19.042Z,18.41
2023-05-21T03:10:19.068Z,18.41
2023-05-21T03:11:19.083Z,18.39
2023-05-21T03:12:19.116Z,18.39
2023-05-21T03:13:19.176Z,18.37
2023-05-21T03:14:19.152Z,18.35
2023-05-21T03:15:19.200Z,18.31
2023-05-21T03:16:19.209Z,18.31
2023-05-21T03:17:19.238Z,18.31
2023-05-21T03:18:19.223Z,18.29
2023-05-21T03:19:19.317Z,18.28
2023-05-21T03:20:19.266Z,18.24
2023-05-21T03:21:19.249Z,18.27
2023-05-21T03:22:19.271Z,18.21
2023-05-21T03:23:19.314Z,18.24
2023-05-21T03:24:19.294Z,18.25
2023-05-21T03:25:19.310Z,18.24
2023-05-21T03:26:19.331Z,18.25
2023-05-21T03:27:19.342Z,18.27
2023-05-21T03:28:19.381Z,18.28
2023-05-21T03:29:19.390Z,18.27
2023-05-21T03:30:19.411Z,18.21
2023-05-21T03:31:19.429Z,18.23
2023-05-21T03:32:19.513Z,18.25
2023-05-21T03:33:19.464Z,18.23
2023-05-21T03:34:19.461Z,18.19
2023-05-21T03:35:19.491Z,18.19
2023-05-21T03:36:19.465Z,18.21
2023-05-21T03:37:19.505Z,18.23
2023-05-21T03:38:19.515Z,18.21
2023-05-21T03:39:19.522Z,18.19
2023-05-21T03:40:19.590Z,18.21
2023-05-21T03:41:19.560Z,18.24
2023-05-21T03:42:19.573Z,18.21
2023-05-21T03:43:19.610Z,18.21
2023-05-21T03:44:19.612Z,18.19
2023-05-21T03:45:19.629Z,18.17
2023-05-21T03:46:19.700Z,18.15
2023-05-21T03:47:19.682Z,18.14
2023-05-21T03:48:19.682Z,18.11
2023-05-21T03:49:19.711Z,18.15
2023-05-21T03:50:19.739Z,18.12
2023-05-21T03:51:19.738Z,18.15
2023-05-21T03:52:19.748Z,18.14
2023-05-21T03:53:19.781Z,18.11
2023-05-21T03:54:19.789Z,18.14
2023-05-21T03:55:19.829Z,18.10
2023-05-21T03:56:19.825Z,18.12
2023-05-21T03:57:19.841Z,18.12
2023-05-21T03:58:19.829Z,18.12
2023-05-21T03:59:19.848Z,18.15
2023-05-21T04:00:19.902Z,18.15
2023-05-21T04:01:19.890Z,18.18
2023-05-21T04:02:20.013Z,18.18
2023-05-21T04:03:20.005Z,18.18
2023-05-21T04:04:20.016Z,18.18
2023-05-21T04:05:19.977Z,18.21
2023-05-21T04:06:19.966Z,18.24
2023-05-21T04:07:19.967Z,18.21
2023-05-21T04:08:20.022Z,18.21
2023-05-21T04:09:20.001Z,18.21
2023-05-21T04:10:20.046Z,18.23
2023-05-21T04:11:20.017Z,18.23
2023-05-21T04:12:20.065Z,18.24
2023-05-21T04:13:20.058Z,18.24
2023-05-21T04:14:20.069Z,18.25
2023-05-21T04:15:20.114Z,18.21
2023-05-21T04:16:20.115Z,18.19
2023-05-21T04:17:20.089Z,18.12
2023-05-21T04:18:20.106Z,18.17
2023-05-21T04:19:20.236Z,18.15
2023-05-21T04:20:20.161Z,18.15
2023-05-21T04:21:20.182Z,18.11
2023-05-21T04:22:20.201Z,18.08
2023-05-21T04:23:20.188Z,18.08
2023-05-21T04:24:20.208Z,18.08
2023-05-21T04:25:20.183Z,18.05
2023-05-21T04:26:20.194Z,18.05
2023-05-21T04:27:20.223Z,18.07
2023-05-21T04:28:20.444Z,18.04
2023-05-21T04:29:20.232Z,18.04
2023-05-21T04:30:20.293Z,18.03
2023-05-21T04:31:20.297Z,18.01
2023-05-21T04:32:20.347Z,18.01
2023-05-21T04:33:20.429Z,18.03
2023-05-21T04:34:20.327Z,18.03
2023-05-21T04:35:20.337Z,18.00
2023-05-21T04:36:20.323Z,18.01
2023-05-21T04:37:20.325Z,18.03
2023-05-21T04:38:20.341Z,18.03
2023-05-21T04:39:20.340Z,18.05
2023-05-21T04:40:20.389Z,18.03
2023-05-21T04:41:20.372Z,18.04
2023-05-21T04:42:20.370Z,18.05
2023-05-21T04:43:20.387Z,18.07
2023-05-21T04:44:20.388Z,18.08
2023-05-21T04:45:20.417Z,18.10
2023-05-21T04:46:20.446Z,18.10
2023-05-21T04:47:20.450Z,18.10
2023-05-21T04:48:20.440Z,17.93
2023-05-21T04:49:20.468Z,18.08
2023-05-21T04:50:20.465Z,18.12
2023-05-21T04:51:20.492Z,18.11
2023-05-21T04:52:20.501Z,18.15
2023-05-21T04:53:20.523Z,18.19
2023-05-21T04:54:20.527Z,18.18
2023-05-21T04:55:20.536Z,18.24
2023-05-21T04:56:20.619Z,18.21
2023-05-21T04:57:20.585Z,18.24
2023-05-21T04:58:20.623Z,18.28
2023-05-21T04:59:20.616Z,18.28
2023-05-21T05:00:20.620Z,18.32
2023-05-21T05:01:20.676Z,18.34
2023-05-21T05:02:20.657Z,18.35
2023-05-21T05:03:20.764Z,18.35
2023-05-21T05:04:20.682Z,18.38
2023-05-21T05:05:20.736Z,18.39
2023-05-21T05:06:20.743Z,18.39
2023-05-21T05:07:20.737Z,18.45
2023-05-21T05:08:20.783Z,18.47
2023-05-21T05:09:20.880Z,18.47
2023-05-21T05:10:20.860Z,18.47
2023-05-21T05:11:20.848Z,18.47
2023-05-21T05:12:20.854Z,18.49
2023-05-21T05:13:20.880Z,18.49
2023-05-21T05:14:20.881Z,18.52
2023-05-21T05:15:20.918Z,18.51
2023-05-21T05:16:20.963Z,18.49
2023-05-21T05:17:20.953Z,18.55
2023-05-21T05:18:20.961Z,18.59
2023-05-21T05:19:21.018Z,18.55
2023-05-21T05:20:21.055Z,18.59
2023-05-21T05:21:21.029Z,18.60
2023-05-21T05:22:21.036Z,18.63
2023-05-21T05:23:21.066Z,18.63
2023-05-21T05:24:21.091Z,18.63
2023-05-21T05:25:21.115Z,18.63
2023-05-21T05:26:21.118Z,18.63
2023-05-21T05:27:21.151Z,18.66
2023-05-21T05:28:21.118Z,18.72
2023-05-21T05:29:21.156Z,18.69
2023-05-21T05:30:21.182Z,18.70
2023-05-21T05:31:21.255Z,18.75
2023-05-21T05:32:21.314Z,18.72
2023-05-21T05:33:21.415Z,18.73
2023-05-21T05:34:21.437Z,18.63
2023-05-21T05:35:21.442Z,18.70
2023-05-21T05:36:21.415Z,18.72
2023-05-21T05:37:21.433Z,18.76
2023-05-21T05:38:21.449Z,18.77
2023-05-21T05:39:21.471Z,18.83
2023-05-21T05:40:21.566Z,18.73
2023-05-21T05:41:21.610Z,18.82
2023-05-21T05:42:21.622Z,18.82
2023-05-21T05:43:21.695Z,18.87
2023-05-21T05:44:21.727Z,18.86
2023-05-21T05:45:21.752Z,18.90
2023-05-21T05:46:21.862Z,18.93
2023-05-21T05:47:21.894Z,18.95
2023-05-21T05:48:21.910Z,18.96
2023-05-21T05:49:21.971Z,19.02
2023-05-21T05:50:22.050Z,19.05
2023-05-21T05:51:22.111Z,19.09
2023-05-21T05:52:22.139Z,19.11
2023-05-21T05:53:22.226Z,19.14
2023-05-21T05:54:22.283Z,19.14
2023-05-21T05:55:22.323Z,19.18
2023-05-21T05:56:22.409Z,19.17
2023-05-21T05:57:22.461Z,19.21
2023-05-21T05:58:22.510Z,19.23
2023-05-21T05:59:22.560Z,19.27
2023-05-21T06:00:22.629Z,19.31
2023-05-21T06:01:22.744Z,19.14
2023-05-21T06:02:22.785Z,19.20
2023-05-21T06:03:22.884Z,19.24
2023-05-21T06:04:22.768Z,19.27
2023-05-21T06:05:22.837Z,19.28
2023-05-21T06:06:22.926Z,19.31
2023-05-21T06:07:22.929Z,19.34
2023-05-21T06:08:22.958Z,19.31
2023-05-21T06:09:22.976Z,19.35
2023-05-21T06:10:23.052Z,19.37
2023-05-21T06:11:23.064Z,19.38
2023-05-21T06:12:23.107Z,19.37
2023-05-21T06:13:23.133Z,19.39
2023-05-21T06:14:23.146Z,19.41
2023-05-21T06:15:23.219Z,19.44
2023-05-21T06:16:23.248Z,19.44
2023-05-21T06:17:23.276Z,19.45
2023-05-21T06:18:23.259Z,19.50
2023-05-21T06:19:23.321Z,19.48
2023-05-21T06:20:23.308Z,19.54
2023-05-21T06:21:23.335Z,19.50
2023-05-21T06:22:24.916Z,19.53
2023-05-21T06:23:23.359Z,19.58
2023-05-21T06:24:23.383Z,19.60
2023-05-21T06:25:23.416Z,19.65
2023-05-21T06:26:23.410Z,19.69
2023-05-21T06:27:23.408Z,19.72
2023-05-21T06:28:23.413Z,19.74
2023-05-21T06:29:23.447Z,19.75
2023-05-21T06:30:23.499Z,19.78
2023-05-21T06:31:23.440Z,19.84
2023-05-21T06:32:23.666Z,19.84
2023-05-21T06:33:23.636Z,19.85
2023-05-21T06:34:23.537Z,19.88
2023-05-21T06:35:23.609Z,19.89
2023-05-21T06:36:23.629Z,19.92
2023-05-21T06:37:24.836Z,19.95
2023-05-21T06:38:23.655Z,19.99
2023-05-21T06:39:23.659Z,19.92
2023-05-21T06:40:23.690Z,19.99
2023-05-21T06:41:23.641Z,20.03
2023-05-21T06:42:23.638Z,20.03
2023-05-21T06:43:23.622Z,20.09
2023-05-21T06:44:23.606Z,20.09
2023-05-21T06:45:23.648Z,20.12
2023-05-21T06:46:23.672Z,19.95
2023-05-21T06:47:23.627Z,20.06
2023-05-21T06:48:23.609Z,20.15
2023-05-21T06:49:23.613Z,20.17
2023-05-21T06:50:23.621Z,20.23
2023-05-21T06:51:23.584Z,20.26
2023-05-21T06:52:23.574Z,20.29
2023-05-21T06:53:23.567Z,20.34
2023-05-21T06:54:24.906Z,20.36
2023-05-21T06:55:23.736Z,20.40
2023-05-21T06:56:23.713Z,20.40
2023-05-21T06:57:23.773Z,20.36
2023-05-21T06:58:23.729Z,20.40
2023-05-21T06:59:23.742Z,20.44
2023-05-21T07:00:23.811Z,20.46
2023-05-21T07:01:23.845Z,20.47
2023-05-21T07:02:23.850Z,20.51
2023-05-21T07:03:24.002Z,20.48
2023-05-21T07:04:23.783Z,20.53
2023-05-21T07:05:23.819Z,20.46
2023-05-21T07:06:23.801Z,20.40
2023-05-21T07:07:23.802Z,20.42
2023-05-21T07:08:23.785Z,20.47
2023-05-21T07:09:23.802Z,20.54
2023-05-21T07:10:23.827Z,20.57
2023-05-21T07:11:23.818Z,20.63
2023-05-21T07:12:23.820Z,20.67
2023-05-21T07:13:23.848Z,20.54
2023-05-21T07:14:23.829Z,20.64
2023-05-21T07:15:23.850Z,20.70
2023-05-21T07:16:23.887Z,20.74
2023-05-21T07:17:23.919Z,20.75
2023-05-21T07:18:23.899Z,20.77
2023-05-21T07:19:23.961Z,20.81
2023-05-21T07:20:23.945Z,20.84
2023-05-21T07:21:23.924Z,20.85
2023-05-21T07:22:25.498Z,20.87
2023-05-21T07:23:23.949Z,20.91
2023-05-21T07:24:23.938Z,20.94
2023-05-21T07:25:23.925Z,20.97
2023-05-21T07:26:23.928Z,20.91
2023-05-21T07:27:25.612Z,20.95
2023-05-21T07:28:23.912Z,21.01
2023-05-21T07:29:23.891Z,21.01
2023-05-21T07:30:23.944Z,21.05
2023-05-21T07:31:24.052Z,21.09
2023-05-21T07:32:24.064Z,21.14
2023-05-21T07:33:24.021Z,21.16
2023-05-21T07:34:24.054Z,21.19
2023-05-21T07:35:24.135Z,21.16
2023-05-21T07:36:24.153Z,21.19
2023-05-21T07:37:24.220Z,21.23
2023-05-21T07:38:24.270Z,21.28
2023-05-21T07:39:24.310Z,21.28
2023-05-21T07:40:24.449Z,21.33
2023-05-21T07:41:24.406Z,21.38
2023-05-21T07:42:24.461Z,21.39
2023-05-21T07:43:24.593Z,21.42
2023-05-21T07:44:24.549Z,21.49
2023-05-21T07:45:24.591Z,21.50
2023-05-21T07:46:24.672Z,21.52
2023-05-21T07:47:24.689Z,21.53
2023-05-21T07:48:24.696Z,21.59
2023-05-21T07:49:24.700Z,21.60
2023-05-21T07:50:24.746Z,21.46
2023-05-21T07:51:24.749Z,21.60
2023-05-21T07:52:24.809Z,21.66
2023-05-21T07:53:24.732Z,21.69
2023-05-21T07:54:24.795Z,21.70
2023-05-21T07:55:24.765Z,21.73
2023-05-21T07:56:24.766Z,21.69
2023-05-21T07:57:24.796Z,21.70
2023-05-21T07:58:24.875Z,21.79
2023-05-21T07:59:24.880Z,21.90
2023-05-21T08:00:24.975Z,21.93
2023-05-21T08:01:25.001Z,22.00
2023-05-21T08:02:25.140Z,21.94
2023-05-21T08:03:25.255Z,22.03
2023-05-21T08:04:25.332Z,22.08
2023-05-21T08:05:25.241Z,22.08
2023-05-21T08:06:25.301Z,22.14
2023-05-21T08:07:25.364Z,22.17
2023-05-21T08:08:25.409Z,22.12
2023-05-21T08:09:25.446Z,22.18
2023-05-21T08:10:25.500Z,22.14
2023-05-21T08:11:25.519Z,22.20
2023-05-21T08:12:25.583Z,22.22
2023-05-21T08:13:25.598Z,22.28
2023-05-21T08:14:25.630Z,22.34
2023-05-21T08:15:25.650Z,22.20
2023-05-21T08:16:25.718Z,22.35
2023-05-21T08:17:25.732Z,22.30
2023-05-21T08:18:25.716Z,22.40
2023-05-21T08:19:25.818Z,22.44
2023-05-21T08:20:25.782Z,22.40
2023-05-21T08:21:25.804Z,22.49
2023-05-21T08:22:25.821Z,22.48
2023-05-21T08:23:25.838Z,22.48
2023-05-21T08:24:25.847Z,22.41
2023-05-21T08:25:25.865Z,22.38
2023-05-21T08:26:25.866Z,22.22
2023-05-21T08:27:25.864Z,22.37
2023-05-21T08:28:25.886Z,22.38
2023-05-21T08:29:25.889Z,22.32
2023-05-21T08:30:25.888Z,22.18
2023-05-21T08:31:25.919Z,22.37
2023-05-21T08:32:25.918Z,22.47
2023-05-21T08:33:25.939Z,22.45
2023-05-21T08:34:25.916Z,22.52
2023-05-21T08:35:25.916Z,22.58
2023-05-21T08:36:25.945Z,22.49
2023-05-21T08:37:25.960Z,22.56
2023-05-21T08:38:27.036Z,22.69
2023-05-21T08:39:26.016Z,22.72
2023-05-21T08:40:25.961Z,22.75
2023-05-21T08:41:25.954Z,22.78
2023-05-21T08:42:36.208Z,22.83
2023-05-21T08:43:26.936Z,22.56
2023-05-21T08:44:25.947Z,22.72
2023-05-21T08:45:25.953Z,22.86
2023-05-21T08:46:25.994Z,22.98
2023-05-21T08:47:25.928Z,23.00
2023-05-21T08:48:25.918Z,23.10
2023-05-21T08:49:27.283Z,22.90
2023-05-21T08:50:25.884Z,22.90
2023-05-21T08:51:25.913Z,23.05
2023-05-21T08:52:25.882Z,22.93
2023-05-21T08:53:28.618Z,23.02
2023-05-21T08:54:25.880Z,22.78
2023-05-21T08:55:25.864Z,22.96
2023-05-21T08:56:25.880Z,23.10
2023-05-21T08:57:25.856Z,23.16
2023-05-21T08:58:25.838Z,23.09
2023-05-21T08:59:25.848Z,23.20
2023-05-21T09:00:25.830Z,23.27
2023-05-21T09:01:26.656Z,23.09
2023-05-21T09:02:25.886Z,23.10
2023-05-21T09:03:26.000Z,23.11
2023-05-21T09:04:25.851Z,23.13
2023-05-21T09:05:25.806Z,23.21
2023-05-21T09:06:25.805Z,23.13
2023-05-21T09:07:25.791Z,23.26
2023-05-21T09:08:25.797Z,23.06
2023-05-21T09:09:25.773Z,23.20
2023-05-21T09:10:25.774Z,23.33
2023-05-21T09:11:25.789Z,23.37
2023-05-21T09:12:25.765Z,23.41
2023-05-21T09:13:25.794Z,23.53
2023-05-21T09:14:25.754Z,23.54
2023-05-21T09:15:25.761Z,23.60
2023-05-21T09:16:25.782Z,23.67
2023-05-21T09:17:25.745Z,23.69
2023-05-21T09:18:25.728Z,23.68
2023-05-21T09:19:25.770Z,23.75
2023-05-21T09:20:25.724Z,23.81
2023-05-21T09:21:25.726Z,23.71
2023-05-21T09:22:25.708Z,23.67
2023-05-21T09:23:25.717Z,23.87
2023-05-21T09:24:25.705Z,23.95
2023-05-21T09:25:25.668Z,24.02
2023-05-21T09:26:25.689Z,24.04
2023-05-21T09:27:25.650Z,23.99
2023-05-21T09:28:25.675Z,24.09
2023-05-21T09:29:25.665Z,24.05
2023-05-21T09:30:28.679Z,24.04
2023-05-21T09:31:25.643Z,24.18
2023-05-21T09:32:25.639Z,24.22
2023-05-21T09:33:25.639Z,24.18
2023-05-21T09:34:25.611Z,24.23
2023-05-21T09:35:25.632Z,24.30
2023-05-21T09:36:25.609Z,24.39
2023-05-21T09:37:27.407Z,24.37
2023-05-21T09:38:25.592Z,24.43
2023-05-21T09:39:25.597Z,24.47
2023-05-21T09:40:25.565Z,24.52
2023-05-21T09:41:25.586Z,24.44
2023-05-21T09:42:25.560Z,24.47
2023-05-21T09:43:25.551Z,24.59
2023-05-21T09:44:25.552Z,24.60
2023-05-21T09:45:25.559Z,24.60
2023-05-21T09:46:25.551Z,24.60
2023-05-21T09:47:25.635Z,24.68
2023-05-21T09:48:25.655Z,24.71
2023-05-21T09:49:25.735Z,24.73
2023-05-21T09:50:25.712Z,24.52
2023-05-21T09:51:25.757Z,24.66
2023-05-21T09:52:25.793Z,24.73
2023-05-21T09:53:25.874Z,24.73
2023-05-21T09:54:25.923Z,24.78
2023-05-21T09:55:25.934Z,24.86
2023-05-21T09:56:25.965Z,24.91
2023-05-21T09:57:25.989Z,24.94
2023-05-21T09:58:26.019Z,24.95
2023-05-21T09:59:26.060Z,24.97
2023-05-21T10:00:26.068Z,24.95
2023-05-21T10:01:26.168Z,24.90
2023-05-21T10:02:26.129Z,24.68
2023-05-21T10:03:26.126Z,24.78
2023-05-21T10:04:26.174Z,24.90
2023-05-21T10:05:26.141Z,24.88
2023-05-21T10:06:26.185Z,24.94
2023-05-21T10:07:26.345Z,24.97
2023-05-21T10:08:26.297Z,25.07
2023-05-21T10:09:26.305Z,25.08
2023-05-21T10:10:26.365Z,25.11
2023-05-21T10:11:26.431Z,25.15
2023-05-21T10:12:26.483Z,25.18
2023-05-21T10:13:26.531Z,25.15
2023-05-21T10:14:26.563Z,25.14
2023-05-21T10:15:26.659Z,25.19
2023-05-21T10:16:26.671Z,25.07
2023-05-21T10:17:26.726Z,25.04
2023-05-21T10:18:26.739Z,24.81
2023-05-21T10:19:26.937Z,25.05
2023-05-21T10:20:26.827Z,25.11
2023-05-21T10:21:26.839Z,25.01
2023-05-21T10:22:26.905Z,24.94
2023-05-21T10:23:26.928Z,24.98
2023-05-21T10:24:26.944Z,25.10
2023-05-21T10:25:26.966Z,25.18
2023-05-21T10:26:27.026Z,25.13
2023-05-21T10:27:27.036Z,25.25
2023-05-21T10:28:27.047Z,25.32
2023-05-21T10:29:27.057Z,25.32
2023-05-21T10:30:27.082Z,25.42
2023-05-21T10:31:27.201Z,25.45
2023-05-21T10:32:27.315Z,25.49
2023-05-21T10:33:27.255Z,25.59
2023-05-21T10:34:27.271Z,25.56
2023-05-21T10:35:27.314Z,25.63
2023-05-21T10:36:27.332Z,25.70
2023-05-21T10:37:27.366Z,25.75
2023-05-21T10:38:27.377Z,25.63
2023-05-21T10:39:27.395Z,25.63
2023-05-21T10:40:27.422Z,25.72
2023-05-21T10:41:27.493Z,25.75
2023-05-21T10:42:27.573Z,25.73
2023-05-21T10:43:27.540Z,25.69
2023-05-21T10:44:27.603Z,25.73
2023-05-21T10:45:27.685Z,25.68
2023-05-21T10:46:27.687Z,25.82
2023-05-21T10:47:27.778Z,25.87
2023-05-21T10:48:27.804Z,25.90
2023-05-21T10:49:27.870Z,25.92
2023-05-21T10:50:27.942Z,25.93
2023-05-21T10:51:27.974Z,25.97
2023-05-21T10:52:28.015Z,25.93
2023-05-21T10:53:28.032Z,25.97
2023-05-21T10:54:28.084Z,25.99
2023-05-21T10:55:28.111Z,26.01
2023-05-21T10:56:28.150Z,26.08
2023-05-21T10:57:28.189Z,26.00
2023-05-21T10:58:29.955Z,26.04
2023-05-21T10:59:28.258Z,26.13
2023-05-21T11:00:28.293Z,26.00
2023-05-21T11:01:28.342Z,26.06
2023-05-21T11:02:28.395Z,26.01
2023-05-21T11:03:28.515Z,26.07
2023-05-21T11:04:28.400Z,26.13
2023-05-21T11:05:28.418Z,26.12
2023-05-21T11:06:28.503Z,26.16
2023-05-21T11:07:28.483Z,26.16
2023-05-21T11:08:28.531Z,26.20
2023-05-21T11:09:28.533Z,26.14
2023-05-21T11:10:28.578Z,26.13
2023-05-21T11:11:28.592Z,26.14
2023-05-21T11:12:28.615Z,26.14
2023-05-21T11:13:28.633Z,26.14
2023-05-21T11:14:28.673Z,26.30
2023-05-21T11:15:28.734Z,26.23
2023-05-21T11:16:28.788Z,26.27
2023-05-21T11:17:28.811Z,26.33
2023-05-21T11:18:28.762Z,26.37
2023-05-21T11:19:29.477Z,26.43
2023-05-21T11:20:28.794Z,26.47
2023-05-21T11:21:28.790Z,26.45
2023-05-21T11:22:28.823Z,26.50
2023-05-21T11:23:28.874Z,26.48
2023-05-21T11:24:28.902Z,26.54
2023-05-21T11:25:28.941Z,26.55
2023-05-21T11:26:28.988Z,26.52
2023-05-21T11:27:29.055Z,26.65
2023-05-21T11:28:29.132Z,26.68
2023-05-21T11:29:29.219Z,26.72
2023-05-21T11:30:29.318Z,26.75
2023-05-21T11:31:29.388Z,26.81
2023-05-21T11:32:29.435Z,26.81
2023-05-21T11:33:29.478Z,26.81
2023-05-21T11:34:29.594Z,26.83
2023-05-21T11:35:29.572Z,26.83
2023-05-21T11:36:29.634Z,26.85
2023-05-21T11:37:29.679Z,26.83
2023-05-21T11:38:29.747Z,26.88
2023-05-21T11:39:29.861Z,26.89
2023-05-21T11:40:29.862Z,26.89
2023-05-21T11:41:29.936Z,26.95
2023-05-21T11:42:29.968Z,26.96
2023-05-21T11:43:30.032Z,26.92
2023-05-21T11:44:30.075Z,26.79
2023-05-21T11:45:30.115Z,26.81
2023-05-21T11:46:30.234Z,26.86
2023-05-21T11:47:30.254Z,26.89
2023-05-21T11:48:31.862Z,26.91
2023-05-21T11:49:30.371Z,26.89
2023-05-21T11:50:30.458Z,26.86
2023-05-21T11:51:30.520Z,26.93
2023-05-21T11:52:30.526Z,26.95
2023-05-21T11:53:30.601Z,26.93
2023-05-21T11:54:30.647Z,26.98
2023-05-21T11:55:30.681Z,26.98
2023-05-21T11:56:30.777Z,27.02
2023-05-21T11:57:30.989Z,27.06
2023-05-21T11:58:30.848Z,27.09
2023-05-21T11:59:30.906Z,27.07
2023-05-21T12:00:30.975Z,27.09
2023-05-21T12:01:31.067Z,26.96
2023-05-21T12:02:31.066Z,27.07
2023-05-21T12:03:31.163Z,27.16
2023-05-21T12:04:31.167Z,27.16
2023-05-21T12:05:31.253Z,27.22
2023-05-21T12:06:31.401Z,27.06
2023-05-21T12:07:31.461Z,26.99
2023-05-21T12:08:31.367Z,27.12
2023-05-21T12:09:31.410Z,27.09
2023-05-21T12:10:31.463Z,27.06
2023-05-21T12:11:31.502Z,27.12
2023-05-21T12:12:42.191Z,27.20
2023-05-21T12:13:32.530Z,27.09
2023-05-21T12:14:31.543Z,27.05
2023-05-21T12:15:31.499Z,27.03
2023-05-21T12:16:31.559Z,27.09
2023-05-21T12:17:31.544Z,27.19
2023-05-21T12:18:31.486Z,27.22
2023-05-21T12:19:31.560Z,27.20
2023-05-21T12:20:31.482Z,27.16
2023-05-21T12:21:31.458Z,27.13
2023-05-21T12:22:31.455Z,27.06
2023-05-21T12:23:31.461Z,26.85
2023-05-21T12:24:31.456Z,26.89
2023-05-21T12:25:31.439Z,26.99
2023-05-21T12:26:31.490Z,27.03
2023-05-21T12:27:32.841Z,27.02
2023-05-21T12:28:31.588Z,27.09
2023-05-21T12:29:31.643Z,27.06
2023-05-21T12:30:31.741Z,27.07
2023-05-21T12:31:31.821Z,26.98
2023-05-21T12:32:31.910Z,27.06
2023-05-21T12:33:31.894Z,26.96
2023-05-21T12:34:31.953Z,27.07
2023-05-21T12:35:32.112Z,27.01
2023-05-21T12:36:32.075Z,27.05
2023-05-21T12:37:32.155Z,26.96
2023-05-21T12:38:32.194Z,27.02
2023-05-21T12:39:32.256Z,26.99
2023-05-21T12:40:32.323Z,26.95
2023-05-21T12:41:32.364Z,27.02
2023-05-21T12:42:32.425Z,26.96
2023-05-21T12:43:32.542Z,26.92
2023-05-21T12:44:33.140Z,27.01
2023-05-21T12:45:32.607Z,26.98
2023-05-21T12:46:32.710Z,27.03
2023-05-21T12:47:32.757Z,26.98
2023-05-21T12:48:32.831Z,26.98
2023-05-21T12:49:32.827Z,26.91
2023-05-21T12:50:32.908Z,27.06
2023-05-21T12:51:32.968Z,27.16
2023-05-21T12:52:33.005Z,27.06